sensor_id;sensor_type;location;lat;lon;timestamp;temperature;humidity
66708;DHT22;53622;0.000;0.000;2024-03-02T00:01:16;20.80;55.00
66708;DHT22;53622;0.000;0.000;2024-03-02T00:03:45;20.80;55.40
66708;DHT22;53622;0.000;0.000;2024-03-02T00:06:15;20.80;55.30
66708;DHT22;53622;0.000;0.000;2024-03-02T00:08:45;20.70;55.10
66708;DHT22;53622;0.000;0.000;2024-03-02T00:11:14;20.70;55.00
66708;DHT22;53622;0.000;0.000;2024-03-02T00:13:45;20.70;54.90
66708;DHT22;53622;0.000;0.000;2024-03-02T00:16:14;20.70;54.80
66708;DHT22;53622;0.000;0.000;2024-03-02T00:18:43;20.70;54.80
66708;DHT22;53622;0.000;0.000;2024-03-02T00:21:12;20.70;54.70
66708;DHT22;53622;0.000;0.000;2024-03-02T00:23:42;20.70;54.70
66708;DHT22;53622;0.000;0.000;2024-03-02T00:26:14;20.70;54.70
66708;DHT22;53622;0.000;0.000;2024-03-02T00:28:44;20.70;54.70
66708;DHT22;53622;0.000;0.000;2024-03-02T00:31:13;20.60;54.50
66708;DHT22;53622;0.000;0.000;2024-03-02T00:33:43;20.60;54.60
66708;DHT22;53622;0.000;0.000;2024-03-02T00:36:13;20.60;54.50
66708;DHT22;53622;0.000;0.000;2024-03-02T00:38:45;20.60;54.50
66708;DHT22;53622;0.000;0.000;2024-03-02T00:41:21;20.60;54.50
66708;DHT22;53622;0.000;0.000;2024-03-02T00:43:58;20.60;54.40
66708;DHT22;53622;0.000;0.000;2024-03-02T00:46:29;20.50;54.30
66708;DHT22;53622;0.000;0.000;2024-03-02T00:49:00;20.50;54.20
66708;DHT22;53622;0.000;0.000;2024-03-02T00:51:30;20.50;54.20
66708;DHT22;53622;0.000;0.000;2024-03-02T00:54:01;20.50;54.30
66708;DHT22;53622;0.000;0.000;2024-03-02T00:56:33;20.50;54.10
66708;DHT22;53622;0.000;0.000;2024-03-02T00:59:03;20.40;54.70
66708;DHT22;53622;0.000;0.000;2024-03-02T01:01:32;20.40;54.00
66708;DHT22;53622;0.000;0.000;2024-03-02T01:04:01;20.40;54.00
66708;DHT22;53622;0.000;0.000;2024-03-02T01:06:30;20.40;54.00
66708;DHT22;53622;0.000;0.000;2024-03-02T01:08:59;20.40;54.00
66708;DHT22;53622;0.000;0.000;2024-03-02T01:11:28;20.40;54.00
66708;DHT22;53622;0.000;0.000;2024-03-02T01:13:59;20.40;54.30
66708;DHT22;53622;0.000;0.000;2024-03-02T01:16:27;20.30;54.10
66708;DHT22;53622;0.000;0.000;2024-03-02T01:18:56;20.30;54.20
66708;DHT22;53622;0.000;0.000;2024-03-02T01:21:25;20.30;54.20
66708;DHT22;53622;0.000;0.000;2024-03-02T01:23:54;20.20;53.90
66708;DHT22;53622;0.000;0.000;2024-03-02T01:26:23;20.20;53.90
66708;DHT22;53622;0.000;0.000;2024-03-02T01:28:52;20.20;53.80
66708;DHT22;53622;0.000;0.000;2024-03-02T01:31:22;20.20;53.80
66708;DHT22;53622;0.000;0.000;2024-03-02T01:33:51;20.20;53.80
66708;DHT22;53622;0.000;0.000;2024-03-02T01:36:20;20.20;53.70
66708;DHT22;53622;0.000;0.000;2024-03-02T01:38:48;20.20;53.60
66708;DHT22;53622;0.000;0.000;2024-03-02T01:41:17;20.20;53.60
66708;DHT22;53622;0.000;0.000;2024-03-02T01:43:46;20.20;53.60
66708;DHT22;53622;0.000;0.000;2024-03-02T01:46:15;20.20;53.60
66708;DHT22;53622;0.000;0.000;2024-03-02T01:48:45;20.20;53.60
66708;DHT22;53622;0.000;0.000;2024-03-02T01:51:15;20.20;53.50
66708;DHT22;53622;0.000;0.000;2024-03-02T01:53:44;20.20;53.50
66708;DHT22;53622;0.000;0.000;2024-03-02T01:56:13;20.10;53.30
66708;DHT22;53622;0.000;0.000;2024-03-02T01:58:41;20.10;53.30
66708;DHT22;53622;0.000;0.000;2024-03-02T02:01:11;20.10;53.30
66708;DHT22;53622;0.000;0.000;2024-03-02T02:03:41;20.10;53.30
66708;DHT22;53622;0.000;0.000;2024-03-02T02:06:11;20.10;53.20
66708;DHT22;53622;0.000;0.000;2024-03-02T02:08:40;20.10;53.20
66708;DHT22;53622;0.000;0.000;2024-03-02T02:11:08;20.10;53.30
66708;DHT22;53622;0.000;0.000;2024-03-02T02:13:37;20.00;53.10
66708;DHT22;53622;0.000;0.000;2024-03-02T02:16:07;20.00;53.10
66708;DHT22;53622;0.000;0.000;2024-03-02T02:18:36;20.00;53.10
66708;DHT22;53622;0.000;0.000;2024-03-02T02:21:05;20.00;53.00
66708;DHT22;53622;0.000;0.000;2024-03-02T02:23:35;20.00;53.00
66708;DHT22;53622;0.000;0.000;2024-03-02T02:26:04;20.00;53.00
66708;DHT22;53622;0.000;0.000;2024-03-02T02:28:33;20.00;53.00
66708;DHT22;53622;0.000;0.000;2024-03-02T02:31:02;20.00;52.90
66708;DHT22;53622;0.000;0.000;2024-03-02T02:33:30;19.90;52.90
66708;DHT22;53622;0.000;0.000;2024-03-02T02:35:59;19.90;52.90
66708;DHT22;53622;0.000;0.000;2024-03-02T02:38:28;19.90;52.90
66708;DHT22;53622;0.000;0.000;2024-03-02T02:40:58;19.90;52.90
66708;DHT22;53622;0.000;0.000;2024-03-02T02:43:27;19.90;52.80
66708;DHT22;53622;0.000;0.000;2024-03-02T02:45:56;19.90;52.80
66708;DHT22;53622;0.000;0.000;2024-03-02T02:48:25;19.90;52.80
66708;DHT22;53622;0.000;0.000;2024-03-02T02:50:53;19.90;52.80
66708;DHT22;53622;0.000;0.000;2024-03-02T02:53:22;19.90;52.70
66708;DHT22;53622;0.000;0.000;2024-03-02T02:55:51;19.90;52.80
66708;DHT22;53622;0.000;0.000;2024-03-02T02:58:21;19.90;52.80
66708;DHT22;53622;0.000;0.000;2024-03-02T03:00:50;19.80;52.60
66708;DHT22;53622;0.000;0.000;2024-03-02T03:03:19;19.90;52.70
66708;DHT22;53622;0.000;0.000;2024-03-02T03:05:48;19.80;52.60
66708;DHT22;53622;0.000;0.000;2024-03-02T03:08:17;19.80;52.60
66708;DHT22;53622;0.000;0.000;2024-03-02T03:10:46;19.80;52.50
66708;DHT22;53622;0.000;0.000;2024-03-02T03:13:15;19.80;52.50
66708;DHT22;53622;0.000;0.000;2024-03-02T03:15:45;19.80;52.50
66708;DHT22;53622;0.000;0.000;2024-03-02T03:18:14;19.80;52.50
66708;DHT22;53622;0.000;0.000;2024-03-02T03:20:43;19.80;52.40
66708;DHT22;53622;0.000;0.000;2024-03-02T03:23:12;19.80;52.40
66708;DHT22;53622;0.000;0.000;2024-03-02T03:25:42;19.80;52.40
66708;DHT22;53622;0.000;0.000;2024-03-02T03:28:11;19.80;52.40
66708;DHT22;53622;0.000;0.000;2024-03-02T03:30:40;19.80;52.40
66708;DHT22;53622;0.000;0.000;2024-03-02T03:33:10;19.80;52.40
66708;DHT22;53622;0.000;0.000;2024-03-02T03:35:39;19.80;52.30
66708;DHT22;53622;0.000;0.000;2024-03-02T03:38:08;19.80;52.30
66708;DHT22;53622;0.000;0.000;2024-03-02T03:40:36;19.80;52.30
66708;DHT22;53622;0.000;0.000;2024-03-02T03:43:05;19.70;52.30
66708;DHT22;53622;0.000;0.000;2024-03-02T03:45:34;19.70;52.80
66708;DHT22;53622;0.000;0.000;2024-03-02T03:48:03;19.70;52.20
66708;DHT22;53622;0.000;0.000;2024-03-02T03:50:33;19.70;52.30
66708;DHT22;53622;0.000;0.000;2024-03-02T03:53:02;19.70;52.20
66708;DHT22;53622;0.000;0.000;2024-03-02T03:55:31;19.70;52.20
66708;DHT22;53622;0.000;0.000;2024-03-02T03:58:00;19.70;52.20
66708;DHT22;53622;0.000;0.000;2024-03-02T04:00:28;19.70;52.20
66708;DHT22;53622;0.000;0.000;2024-03-02T04:02:57;19.70;52.20
66708;DHT22;53622;0.000;0.000;2024-03-02T04:05:26;19.60;52.10
66708;DHT22;53622;0.000;0.000;2024-03-02T04:07:56;19.60;52.10
66708;DHT22;53622;0.000;0.000;2024-03-02T04:10:25;19.60;52.10
66708;DHT22;53622;0.000;0.000;2024-03-02T04:12:53;19.60;52.00
66708;DHT22;53622;0.000;0.000;2024-03-02T04:15:22;19.60;52.00
66708;DHT22;53622;0.000;0.000;2024-03-02T04:17:51;19.60;52.00
66708;DHT22;53622;0.000;0.000;2024-03-02T04:20:20;19.60;52.00
66708;DHT22;53622;0.000;0.000;2024-03-02T04:22:49;19.60;52.00
66708;DHT22;53622;0.000;0.000;2024-03-02T04:25:19;19.60;52.00
66708;DHT22;53622;0.000;0.000;2024-03-02T04:27:48;19.60;52.00
66708;DHT22;53622;0.000;0.000;2024-03-02T04:30:17;19.60;52.00
66708;DHT22;53622;0.000;0.000;2024-03-02T04:32:46;19.60;52.00
66708;DHT22;53622;0.000;0.000;2024-03-02T04:35:15;19.60;51.90
66708;DHT22;53622;0.000;0.000;2024-03-02T04:37:44;19.60;52.00
66708;DHT22;53622;0.000;0.000;2024-03-02T04:40:13;19.60;51.90
66708;DHT22;53622;0.000;0.000;2024-03-02T04:42:43;19.60;51.90
66708;DHT22;53622;0.000;0.000;2024-03-02T04:45:11;19.50;51.80
66708;DHT22;53622;0.000;0.000;2024-03-02T04:47:40;19.50;51.80
66708;DHT22;53622;0.000;0.000;2024-03-02T04:50:09;19.50;51.80
66708;DHT22;53622;0.000;0.000;2024-03-02T04:52:38;19.50;51.80
66708;DHT22;53622;0.000;0.000;2024-03-02T04:55:07;19.50;51.80
66708;DHT22;53622;0.000;0.000;2024-03-02T04:57:46;19.50;51.80
66708;DHT22;53622;0.000;0.000;2024-03-02T05:00:15;19.50;51.80
66708;DHT22;53622;0.000;0.000;2024-03-02T05:02:44;19.50;51.80
66708;DHT22;53622;0.000;0.000;2024-03-02T05:05:13;19.50;51.80
66708;DHT22;53622;0.000;0.000;2024-03-02T05:07:42;19.50;52.40
66708;DHT22;53622;0.000;0.000;2024-03-02T05:10:11;19.50;51.80
66708;DHT22;53622;0.000;0.000;2024-03-02T05:12:40;19.50;51.80
66708;DHT22;53622;0.000;0.000;2024-03-02T05:15:26;19.40;51.70
66708;DHT22;53622;0.000;0.000;2024-03-02T05:17:55;19.50;51.80
66708;DHT22;53622;0.000;0.000;2024-03-02T05:20:25;19.40;51.70
66708;DHT22;53622;0.000;0.000;2024-03-02T05:22:54;19.40;51.80
66708;DHT22;53622;0.000;0.000;2024-03-02T05:25:23;19.50;51.70
66708;DHT22;53622;0.000;0.000;2024-03-02T05:27:51;19.40;51.60
66708;DHT22;53622;0.000;0.000;2024-03-02T05:30:20;19.40;51.60
66708;DHT22;53622;0.000;0.000;2024-03-02T05:32:50;19.40;51.60
66708;DHT22;53622;0.000;0.000;2024-03-02T05:35:19;19.40;51.60
66708;DHT22;53622;0.000;0.000;2024-03-02T05:37:48;19.40;51.70
66708;DHT22;53622;0.000;0.000;2024-03-02T05:40:17;19.40;51.60
66708;DHT22;53622;0.000;0.000;2024-03-02T05:42:48;19.40;51.60
66708;DHT22;53622;0.000;0.000;2024-03-02T05:45:17;19.30;51.50
66708;DHT22;53622;0.000;0.000;2024-03-02T05:47:46;19.30;51.50
66708;DHT22;53622;0.000;0.000;2024-03-02T05:50:16;19.40;51.60
66708;DHT22;53622;0.000;0.000;2024-03-02T05:52:44;19.30;51.50
66708;DHT22;53622;0.000;0.000;2024-03-02T05:55:14;19.30;51.60
66708;DHT22;53622;0.000;0.000;2024-03-02T05:57:43;19.30;51.50
66708;DHT22;53622;0.000;0.000;2024-03-02T06:00:26;19.30;51.50
66708;DHT22;53622;0.000;0.000;2024-03-02T06:02:55;19.30;51.40
66708;DHT22;53622;0.000;0.000;2024-03-02T06:05:25;19.30;51.50
66708;DHT22;53622;0.000;0.000;2024-03-02T06:07:54;19.30;51.50
66708;DHT22;53622;0.000;0.000;2024-03-02T06:10:23;19.30;51.50
66708;DHT22;53622;0.000;0.000;2024-03-02T06:12:52;19.30;51.50
66708;DHT22;53622;0.000;0.000;2024-03-02T06:15:21;19.30;51.50
66708;DHT22;53622;0.000;0.000;2024-03-02T06:17:49;19.30;51.50
66708;DHT22;53622;0.000;0.000;2024-03-02T06:20:18;19.30;51.40
66708;DHT22;53622;0.000;0.000;2024-03-02T06:22:48;19.30;51.50
66708;DHT22;53622;0.000;0.000;2024-03-02T06:25:17;19.30;51.40
66708;DHT22;53622;0.000;0.000;2024-03-02T06:27:46;19.30;52.10
66708;DHT22;53622;0.000;0.000;2024-03-02T06:30:15;19.30;51.50
66708;DHT22;53622;0.000;0.000;2024-03-02T06:32:44;19.30;51.50
66708;DHT22;53622;0.000;0.000;2024-03-02T06:35:13;19.30;51.40
66708;DHT22;53622;0.000;0.000;2024-03-02T06:37:42;19.30;51.50
66708;DHT22;53622;0.000;0.000;2024-03-02T06:40:12;19.20;51.40
66708;DHT22;53622;0.000;0.000;2024-03-02T06:42:41;19.30;51.50
66708;DHT22;53622;0.000;0.000;2024-03-02T06:45:10;19.20;51.40
66708;DHT22;53622;0.000;0.000;2024-03-02T06:47:38;19.20;51.40
66708;DHT22;53622;0.000;0.000;2024-03-02T06:50:08;19.20;51.40
66708;DHT22;53622;0.000;0.000;2024-03-02T06:52:37;19.20;51.40
66708;DHT22;53622;0.000;0.000;2024-03-02T06:55:06;19.20;51.40
66708;DHT22;53622;0.000;0.000;2024-03-02T06:57:38;19.20;51.40
66708;DHT22;53622;0.000;0.000;2024-03-02T07:00:07;19.20;51.40
66708;DHT22;53622;0.000;0.000;2024-03-02T07:02:37;19.20;51.50
66708;DHT22;53622;0.000;0.000;2024-03-02T07:05:08;19.20;51.80
66708;DHT22;53622;0.000;0.000;2024-03-02T07:07:37;19.20;51.80
66708;DHT22;53622;0.000;0.000;2024-03-02T07:10:06;19.30;51.90
66708;DHT22;53622;0.000;0.000;2024-03-02T07:12:36;19.30;51.90
66708;DHT22;53622;0.000;0.000;2024-03-02T07:15:07;19.40;52.10
66708;DHT22;53622;0.000;0.000;2024-03-02T07:17:53;19.40;52.10
66708;DHT22;53622;0.000;0.000;2024-03-02T07:20:22;19.50;52.10
66708;DHT22;53622;0.000;0.000;2024-03-02T07:22:51;19.50;51.50
66708;DHT22;53622;0.000;0.000;2024-03-02T07:25:20;19.60;51.40
66708;DHT22;53622;0.000;0.000;2024-03-02T07:27:51;19.60;51.60
66708;DHT22;53622;0.000;0.000;2024-03-02T07:30:22;19.70;51.70
66708;DHT22;53622;0.000;0.000;2024-03-02T07:32:51;19.70;51.90
66708;DHT22;53622;0.000;0.000;2024-03-02T07:35:19;19.80;51.90
66708;DHT22;53622;0.000;0.000;2024-03-02T07:37:49;19.80;51.80
66708;DHT22;53622;0.000;0.000;2024-03-02T07:40:18;19.90;52.00
66708;DHT22;53622;0.000;0.000;2024-03-02T07:42:47;20.00;52.00
66708;DHT22;53622;0.000;0.000;2024-03-02T07:45:16;20.00;51.90
66708;DHT22;53622;0.000;0.000;2024-03-02T07:47:46;20.00;51.90
66708;DHT22;53622;0.000;0.000;2024-03-02T07:50:15;20.00;52.10
66708;DHT22;53622;0.000;0.000;2024-03-02T07:52:44;20.10;52.10
66708;DHT22;53622;0.000;0.000;2024-03-02T07:55:13;20.10;52.00
66708;DHT22;53622;0.000;0.000;2024-03-02T07:57:42;20.20;51.90
66708;DHT22;53622;0.000;0.000;2024-03-02T08:00:11;20.20;51.90
66708;DHT22;53622;0.000;0.000;2024-03-02T08:02:42;20.20;51.90
66708;DHT22;53622;0.000;0.000;2024-03-02T08:05:12;20.30;51.90
66708;DHT22;53622;0.000;0.000;2024-03-02T08:07:41;20.30;51.90
66708;DHT22;53622;0.000;0.000;2024-03-02T08:10:12;20.30;51.90
66708;DHT22;53622;0.000;0.000;2024-03-02T08:12:41;20.40;51.80
66708;DHT22;53622;0.000;0.000;2024-03-02T08:15:11;20.40;52.40
66708;DHT22;53622;0.000;0.000;2024-03-02T08:17:40;20.40;51.70
66708;DHT22;53622;0.000;0.000;2024-03-02T08:20:14;20.50;51.70
66708;DHT22;53622;0.000;0.000;2024-03-02T08:22:42;20.50;51.80
66708;DHT22;53622;0.000;0.000;2024-03-02T08:25:11;20.50;51.50
66708;DHT22;53622;0.000;0.000;2024-03-02T08:27:40;20.60;51.60
66708;DHT22;53622;0.000;0.000;2024-03-02T08:30:10;20.60;51.60
66708;DHT22;53622;0.000;0.000;2024-03-02T08:32:39;20.60;51.50
66708;DHT22;53622;0.000;0.000;2024-03-02T08:35:08;20.70;51.50
66708;DHT22;53622;0.000;0.000;2024-03-02T08:37:40;20.70;51.50
66708;DHT22;53622;0.000;0.000;2024-03-02T08:40:10;20.60;51.40
66708;DHT22;53622;0.000;0.000;2024-03-02T08:42:44;20.70;51.40
66708;DHT22;53622;0.000;0.000;2024-03-02T08:45:13;20.70;51.40
66708;DHT22;53622;0.000;0.000;2024-03-02T08:47:42;20.70;51.30
66708;DHT22;53622;0.000;0.000;2024-03-02T08:50:11;20.70;51.40
66708;DHT22;53622;0.000;0.000;2024-03-02T08:52:41;20.70;51.30
66708;DHT22;53622;0.000;0.000;2024-03-02T08:55:10;20.80;51.30
66708;DHT22;53622;0.000;0.000;2024-03-02T08:57:40;20.80;51.90
66708;DHT22;53622;0.000;0.000;2024-03-02T09:00:10;20.80;51.50
66708;DHT22;53622;0.000;0.000;2024-03-02T09:02:39;20.90;51.40
66708;DHT22;53622;0.000;0.000;2024-03-02T09:05:08;20.90;51.40
66708;DHT22;53622;0.000;0.000;2024-03-02T09:07:37;20.90;51.20
66708;DHT22;53622;0.000;0.000;2024-03-02T09:10:08;20.90;51.20
66708;DHT22;53622;0.000;0.000;2024-03-02T09:12:38;21.00;51.90
66708;DHT22;53622;0.000;0.000;2024-03-02T09:15:07;21.00;52.80
66708;DHT22;53622;0.000;0.000;2024-03-02T09:17:36;21.00;53.10
66708;DHT22;53622;0.000;0.000;2024-03-02T09:20:06;21.10;53.10
66708;DHT22;53622;0.000;0.000;2024-03-02T09:22:35;21.10;53.00
66708;DHT22;53622;0.000;0.000;2024-03-02T09:25:04;21.10;53.20
66708;DHT22;53622;0.000;0.000;2024-03-02T09:30:08;21.10;52.50
66708;DHT22;53622;0.000;0.000;2024-03-02T09:32:37;21.10;52.30
66708;DHT22;53622;0.000;0.000;2024-03-02T09:35:07;21.10;52.30
66708;DHT22;53622;0.000;0.000;2024-03-02T09:37:36;21.10;53.00
66708;DHT22;53622;0.000;0.000;2024-03-02T09:40:06;21.20;52.60
66708;DHT22;53622;0.000;0.000;2024-03-02T09:42:37;21.10;52.30
66708;DHT22;53622;0.000;0.000;2024-03-02T09:45:06;21.20;52.60
66708;DHT22;53622;0.000;0.000;2024-03-02T09:47:35;21.20;52.40
66708;DHT22;53622;0.000;0.000;2024-03-02T09:50:05;21.20;52.40
66708;DHT22;53622;0.000;0.000;2024-03-02T09:52:36;21.20;52.40
66708;DHT22;53622;0.000;0.000;2024-03-02T09:55:06;21.20;52.20
66708;DHT22;53622;0.000;0.000;2024-03-02T09:57:36;21.30;52.40
66708;DHT22;53622;0.000;0.000;2024-03-02T10:00:08;21.30;52.30
66708;DHT22;53622;0.000;0.000;2024-03-02T10:02:43;21.30;51.90
66708;DHT22;53622;0.000;0.000;2024-03-02T10:05:11;21.30;52.20
66708;DHT22;53622;0.000;0.000;2024-03-02T10:07:41;21.30;51.90
66708;DHT22;53622;0.000;0.000;2024-03-02T10:10:14;21.40;52.00
66708;DHT22;53622;0.000;0.000;2024-03-02T10:12:44;21.30;52.30
66708;DHT22;53622;0.000;0.000;2024-03-02T10:15:13;21.40;52.00
66708;DHT22;53622;0.000;0.000;2024-03-02T10:17:42;21.30;52.10
66708;DHT22;53622;0.000;0.000;2024-03-02T10:20:24;21.40;52.10
66708;DHT22;53622;0.000;0.000;2024-03-02T10:22:53;21.40;52.00
66708;DHT22;53622;0.000;0.000;2024-03-02T10:25:31;21.40;51.90
66708;DHT22;53622;0.000;0.000;2024-03-02T10:28:19;21.40;51.90
66708;DHT22;53622;0.000;0.000;2024-03-02T10:30:47;21.40;52.00
66708;DHT22;53622;0.000;0.000;2024-03-02T10:33:21;21.40;51.80
66708;DHT22;53622;0.000;0.000;2024-03-02T10:35:50;21.40;51.50
66708;DHT22;53622;0.000;0.000;2024-03-02T10:38:19;21.40;50.70
66708;DHT22;53622;0.000;0.000;2024-03-02T10:40:48;21.40;51.30
66708;DHT22;53622;0.000;0.000;2024-03-02T10:43:18;21.40;50.80
66708;DHT22;53622;0.000;0.000;2024-03-02T10:45:49;21.40;51.20
66708;DHT22;53622;0.000;0.000;2024-03-02T10:48:19;21.40;51.80
66708;DHT22;53622;0.000;0.000;2024-03-02T10:50:49;21.40;51.80
66708;DHT22;53622;0.000;0.000;2024-03-02T10:53:18;21.50;51.30
66708;DHT22;53622;0.000;0.000;2024-03-02T10:55:49;21.50;51.30
66708;DHT22;53622;0.000;0.000;2024-03-02T10:58:22;21.40;51.20
66708;DHT22;53622;0.000;0.000;2024-03-02T11:00:52;21.40;51.30
66708;DHT22;53622;0.000;0.000;2024-03-02T11:03:21;21.50;51.30
66708;DHT22;53622;0.000;0.000;2024-03-02T11:05:51;21.40;51.30
66708;DHT22;53622;0.000;0.000;2024-03-02T11:09:07;21.40;50.70
66708;DHT22;53622;0.000;0.000;2024-03-02T11:11:40;21.50;51.20
66708;DHT22;53622;0.000;0.000;2024-03-02T11:14:14;21.50;51.20
66708;DHT22;53622;0.000;0.000;2024-03-02T11:16:46;21.50;51.10
66708;DHT22;53622;0.000;0.000;2024-03-02T11:19:16;21.60;51.20
66708;DHT22;53622;0.000;0.000;2024-03-02T11:21:46;21.60;51.10
66708;DHT22;53622;0.000;0.000;2024-03-02T11:24:33;21.70;51.20
66708;DHT22;53622;0.000;0.000;2024-03-02T11:27:05;21.60;51.10
66708;DHT22;53622;0.000;0.000;2024-03-02T11:29:46;21.60;51.10
66708;DHT22;53622;0.000;0.000;2024-03-02T11:32:16;21.50;51.10
66708;DHT22;53622;0.000;0.000;2024-03-02T11:34:46;21.40;49.90
66708;DHT22;53622;0.000;0.000;2024-03-02T11:37:17;21.50;50.20
66708;DHT22;53622;0.000;0.000;2024-03-02T11:39:50;21.40;50.40
66708;DHT22;53622;0.000;0.000;2024-03-02T11:42:19;21.40;50.80
66708;DHT22;53622;0.000;0.000;2024-03-02T11:44:49;21.40;51.10
66708;DHT22;53622;0.000;0.000;2024-03-02T11:47:18;21.40;51.20
66708;DHT22;53622;0.000;0.000;2024-03-02T11:49:49;21.40;51.40
66708;DHT22;53622;0.000;0.000;2024-03-02T11:52:19;21.30;51.60
66708;DHT22;53622;0.000;0.000;2024-03-02T11:54:49;21.30;51.70
66708;DHT22;53622;0.000;0.000;2024-03-02T11:57:20;21.30;51.90
66708;DHT22;53622;0.000;0.000;2024-03-02T11:59:50;21.30;51.90
66708;DHT22;53622;0.000;0.000;2024-03-02T12:02:19;21.30;51.90
66708;DHT22;53622;0.000;0.000;2024-03-02T12:04:49;21.30;51.90
66708;DHT22;53622;0.000;0.000;2024-03-02T12:07:19;21.30;52.10
66708;DHT22;53622;0.000;0.000;2024-03-02T12:09:59;21.30;52.10
66708;DHT22;53622;0.000;0.000;2024-03-02T12:12:29;21.30;52.60
66708;DHT22;53622;0.000;0.000;2024-03-02T12:14:58;21.30;53.50
66708;DHT22;53622;0.000;0.000;2024-03-02T12:17:29;21.30;53.70
66708;DHT22;53622;0.000;0.000;2024-03-02T12:19:58;21.30;53.50
66708;DHT22;53622;0.000;0.000;2024-03-02T12:22:26;21.20;53.40
66708;DHT22;53622;0.000;0.000;2024-03-02T12:24:58;21.20;53.50
66708;DHT22;53622;0.000;0.000;2024-03-02T12:27:27;21.20;53.40
66708;DHT22;53622;0.000;0.000;2024-03-02T12:29:56;21.10;53.40
66708;DHT22;53622;0.000;0.000;2024-03-02T12:32:25;21.10;53.40
66708;DHT22;53622;0.000;0.000;2024-03-02T12:34:55;21.10;53.50
66708;DHT22;53622;0.000;0.000;2024-03-02T12:37:24;21.10;53.40
66708;DHT22;53622;0.000;0.000;2024-03-02T12:39:53;21.10;53.40
66708;DHT22;53622;0.000;0.000;2024-03-02T12:42:23;21.10;53.50
66708;DHT22;53622;0.000;0.000;2024-03-02T12:44:53;21.10;53.50
66708;DHT22;53622;0.000;0.000;2024-03-02T12:47:23;21.10;53.60
66708;DHT22;53622;0.000;0.000;2024-03-02T12:49:51;21.00;53.70
66708;DHT22;53622;0.000;0.000;2024-03-02T12:52:21;21.00;53.70
66708;DHT22;53622;0.000;0.000;2024-03-02T12:54:50;21.00;53.90
66708;DHT22;53622;0.000;0.000;2024-03-02T12:57:20;21.00;54.20
66708;DHT22;53622;0.000;0.000;2024-03-02T12:59:50;21.00;54.10
66708;DHT22;53622;0.000;0.000;2024-03-02T13:02:19;21.00;54.10
66708;DHT22;53622;0.000;0.000;2024-03-02T13:04:53;21.00;54.10
66708;DHT22;53622;0.000;0.000;2024-03-02T13:07:23;20.90;54.20
66708;DHT22;53622;0.000;0.000;2024-03-02T13:09:51;20.90;54.20
66708;DHT22;53622;0.000;0.000;2024-03-02T13:12:24;20.90;54.20
66708;DHT22;53622;0.000;0.000;2024-03-02T13:14:54;20.90;54.30
66708;DHT22;53622;0.000;0.000;2024-03-02T13:17:23;20.90;54.30
66708;DHT22;53622;0.000;0.000;2024-03-02T13:19:53;20.80;54.30
66708;DHT22;53622;0.000;0.000;2024-03-02T13:22:22;20.80;54.40
66708;DHT22;53622;0.000;0.000;2024-03-02T13:24:52;20.90;54.90
66708;DHT22;53622;0.000;0.000;2024-03-02T13:27:21;20.90;55.00
66708;DHT22;53622;0.000;0.000;2024-03-02T13:29:51;20.90;54.90
66708;DHT22;53622;0.000;0.000;2024-03-02T13:32:21;20.90;55.20
66708;DHT22;53622;0.000;0.000;2024-03-02T13:34:51;20.90;55.20
66708;DHT22;53622;0.000;0.000;2024-03-02T13:37:20;20.90;55.20
66708;DHT22;53622;0.000;0.000;2024-03-02T13:39:49;20.90;55.00
66708;DHT22;53622;0.000;0.000;2024-03-02T13:42:18;20.90;54.90
66708;DHT22;53622;0.000;0.000;2024-03-02T13:44:48;20.90;54.60
66708;DHT22;53622;0.000;0.000;2024-03-02T13:47:18;20.80;54.50
66708;DHT22;53622;0.000;0.000;2024-03-02T13:49:50;20.80;54.60
66708;DHT22;53622;0.000;0.000;2024-03-02T13:52:19;20.80;54.50
66708;DHT22;53622;0.000;0.000;2024-03-02T13:54:48;20.80;54.50
66708;DHT22;53622;0.000;0.000;2024-03-02T13:57:19;20.80;54.40
66708;DHT22;53622;0.000;0.000;2024-03-02T13:59:53;20.80;54.40
66708;DHT22;53622;0.000;0.000;2024-03-02T14:02:22;20.70;54.30
66708;DHT22;53622;0.000;0.000;2024-03-02T14:04:53;20.70;54.20
66708;DHT22;53622;0.000;0.000;2024-03-02T14:07:22;20.80;54.30
66708;DHT22;53622;0.000;0.000;2024-03-02T14:09:51;20.70;54.20
66708;DHT22;53622;0.000;0.000;2024-03-02T14:12:19;20.70;54.10
66708;DHT22;53622;0.000;0.000;2024-03-02T14:14:51;20.70;54.10
66708;DHT22;53622;0.000;0.000;2024-03-02T14:17:23;20.70;54.20
66708;DHT22;53622;0.000;0.000;2024-03-02T14:19:53;20.70;54.10
66708;DHT22;53622;0.000;0.000;2024-03-02T14:22:22;20.70;54.00
66708;DHT22;53622;0.000;0.000;2024-03-02T14:24:51;20.70;54.00
66708;DHT22;53622;0.000;0.000;2024-03-02T14:27:19;20.70;54.00
66708;DHT22;53622;0.000;0.000;2024-03-02T14:30:06;20.70;53.80
66708;DHT22;53622;0.000;0.000;2024-03-02T14:32:35;20.70;53.80
66708;DHT22;53622;0.000;0.000;2024-03-02T14:35:06;20.70;53.70
66708;DHT22;53622;0.000;0.000;2024-03-02T14:37:38;20.70;53.70
66708;DHT22;53622;0.000;0.000;2024-03-02T14:40:07;20.70;53.60
66708;DHT22;53622;0.000;0.000;2024-03-02T14:42:37;20.70;53.60
66708;DHT22;53622;0.000;0.000;2024-03-02T14:45:06;20.70;53.60
66708;DHT22;53622;0.000;0.000;2024-03-02T14:47:35;20.70;53.50
66708;DHT22;53622;0.000;0.000;2024-03-02T14:50:06;20.70;54.20
66708;DHT22;53622;0.000;0.000;2024-03-02T14:52:34;20.70;53.50
66708;DHT22;53622;0.000;0.000;2024-03-02T14:55:04;20.70;53.50
66708;DHT22;53622;0.000;0.000;2024-03-02T14:57:35;20.70;53.50
66708;DHT22;53622;0.000;0.000;2024-03-02T15:00:05;20.70;53.50
66708;DHT22;53622;0.000;0.000;2024-03-02T15:02:35;20.70;53.40
66708;DHT22;53622;0.000;0.000;2024-03-02T15:05:06;20.60;53.40
66708;DHT22;53622;0.000;0.000;2024-03-02T15:07:35;20.60;53.50
66708;DHT22;53622;0.000;0.000;2024-03-02T15:10:06;20.70;53.50
66708;DHT22;53622;0.000;0.000;2024-03-02T15:12:36;20.60;52.40
66708;DHT22;53622;0.000;0.000;2024-03-02T15:15:05;20.60;52.80
66708;DHT22;53622;0.000;0.000;2024-03-02T15:17:34;20.60;52.90
66708;DHT22;53622;0.000;0.000;2024-03-02T15:20:04;20.50;53.00
66708;DHT22;53622;0.000;0.000;2024-03-02T15:22:36;20.50;53.00
66708;DHT22;53622;0.000;0.000;2024-03-02T15:25:05;20.50;53.00
66708;DHT22;53622;0.000;0.000;2024-03-02T15:27:34;20.50;53.20
66708;DHT22;53622;0.000;0.000;2024-03-02T15:30:04;20.40;53.10
66708;DHT22;53622;0.000;0.000;2024-03-02T15:32:34;20.40;52.30
66708;DHT22;53622;0.000;0.000;2024-03-02T15:35:04;20.40;52.10
66708;DHT22;53622;0.000;0.000;2024-03-02T15:37:33;20.40;52.00
66708;DHT22;53622;0.000;0.000;2024-03-02T15:40:05;20.40;52.40
66708;DHT22;53622;0.000;0.000;2024-03-02T15:42:36;20.40;52.40
66708;DHT22;53622;0.000;0.000;2024-03-02T15:45:06;20.30;52.30
66708;DHT22;53622;0.000;0.000;2024-03-02T15:47:35;20.30;52.60
66708;DHT22;53622;0.000;0.000;2024-03-02T15:50:05;20.30;52.70
66708;DHT22;53622;0.000;0.000;2024-03-02T15:52:34;20.30;52.50
66708;DHT22;53622;0.000;0.000;2024-03-02T15:55:05;20.30;52.70
66708;DHT22;53622;0.000;0.000;2024-03-02T15:57:34;20.30;52.80
66708;DHT22;53622;0.000;0.000;2024-03-02T16:00:04;20.30;52.80
66708;DHT22;53622;0.000;0.000;2024-03-02T16:02:42;20.30;52.80
66708;DHT22;53622;0.000;0.000;2024-03-02T16:05:11;20.30;52.80